Time;durP1;ratioP1;P1;durP2;ratioP2;P2;SDS_P1;SDS_P2;PMS_P1;PMS_P2;Temp;Humidity;BMP_temperature;BMP_pressure;BME280_temperature;BME280_humidity;BME280_pressure;Samples;Min_cycle;Max_cycle;Signal;HPM_P1;HPM_P2
2021/01/28 00:01:48;;;;;;;35.67;16.20;;;5.30;99.90;;;;;;12487884;28;20049;-41
2021/01/28 00:07:50;;;;;;;38.17;15.98;;;5.20;99.90;;;;;;12479846;28;20469;-42
2021/01/28 00:13:51;;;;;;;38.90;17.70;;;5.20;99.90;;;;;;12489565;28;20053;-42
2021/01/28 00:19:53;;;;;;;38.47;18.13;;;5.10;99.90;;;;;;12498790;28;20041;-41
2021/01/28 00:25:54;;;;;;;41.58;17.98;;;5.20;99.90;;;;;;12490101;28;20041;-42
2021/01/28 00:31:56;;;;;;;43.90;19.85;;;5.10;99.90;;;;;;12498099;28;20060;-41
2021/01/28 00:37:59;;;;;;;40.25;18.38;;;5.10;99.90;;;;;;12496075;28;20057;-42
2021/01/28 00:44:01;;;;;;;36.25;17.13;;;5.10;99.90;;;;;;12510755;28;20044;-42
2021/01/28 00:50:03;;;;;;;40.53;17.48;;;5.20;99.90;;;;;;12493638;28;20060;-42
2021/01/28 00:56:05;;;;;;;40.15;17.80;;;5.20;99.90;;;;;;12501866;28;20833;-41
2021/01/28 01:02:06;;;;;;;42.38;17.92;;;5.10;99.90;;;;;;12508387;28;20603;-42
2021/01/28 01:08:12;;;;;;;47.67;19.85;;;5.20;99.90;;;;;;12488475;28;20044;-41
2021/01/28 01:14:14;;;;;;;47.08;19.05;;;5.10;99.90;;;;;;12500073;28;20052;-42
2021/01/28 01:20:18;;;;;;;43.00;18.30;;;5.10;99.90;;;;;;12446615;28;20048;-42
2021/01/28 01:26:20;;;;;;;47.15;18.38;;;5.10;99.90;;;;;;12455687;28;20053;-41
2021/01/28 01:32:22;;;;;;;45.58;18.55;;;5.20;99.90;;;;;;12450445;28;20056;-41
2021/01/28 01:38:25;;;;;;;45.00;17.90;;;5.30;99.90;;;;;;12455785;28;20871;-41
2021/01/28 01:44:29;;;;;;;40.30;16.08;;;5.30;99.90;;;;;;12481507;28;20053;-41
2021/01/28 01:50:48;;;;;;;35.10;14.57;;;5.40;99.90;;;;;;12477954;28;20445;-42
2021/01/28 01:56:53;;;;;;;38.22;17.05;;;5.50;99.90;;;;;;12472947;28;20056;-42
2021/01/28 02:03:01;;;;;;;40.33;16.55;;;5.50;99.90;;;;;;12486487;28;20436;-42
2021/01/28 02:09:05;;;;;;;43.72;18.05;;;5.50;99.90;;;;;;12484973;28;20386;-41
2021/01/28 02:15:12;;;;;;;41.20;17.20;;;5.50;99.90;;;;;;12482298;28;20064;-42
2021/01/28 02:21:20;;;;;;;107.95;19.00;;;5.50;99.90;;;;;;12495717;28;20127;-42
2021/01/28 02:27:22;;;;;;;42.33;16.13;;;5.40;99.90;;;;;;12511388;28;20079;-42
2021/01/28 02:33:46;;;;;;;35.92;14.35;;;5.30;99.90;;;;;;12498957;28;20055;-42
2021/01/28 02:39:48;;;;;;;27.13;12.70;;;5.20;99.90;;;;;;12497623;28;20491;-42
2021/01/28 02:46:04;;;;;;;29.38;12.15;;;5.30;99.90;;;;;;12495856;28;20136;-42
2021/01/28 02:52:05;;;;;;;34.25;12.63;;;5.20;99.90;;;;;;12501310;28;20048;-41
2021/01/28 02:58:07;;;;;;;29.50;13.18;;;4.90;99.90;;;;;;12493714;28;20149;-42
2021/01/28 03:04:10;;;;;;;23.50;9.88;;;5.00;99.90;;;;;;12500271;28;20129;-41
2021/01/28 03:10:15;;;;;;;17.10;8.40;;;5.10;99.90;;;;;;12490749;28;20140;-41
2021/01/28 03:16:16;;;;;;;;;;;5.10;99.90;;;;;;12487788;28;20049;-42
2021/01/28 03:22:18;;;;;;;15.43;7.00;;;5.10;99.90;;;;;;12490932;28;19974;-41
2021/01/28 03:28:19;;;;;;;12.45;6.40;;;5.10;99.90;;;;;;12505075;28;20089;-42
2021/01/28 03:34:21;;;;;;;11.50;5.72;;;5.10;99.90;;;;;;12488946;28;20064;-42
2021/01/28 03:40:26;;;;;;;11.10;5.78;;;5.00;99.90;;;;;;12506248;28;20148;-42
2021/01/28 03:46:27;;;;;;;11.90;5.60;;;5.00;99.90;;;;;;12478111;28;20049;-41
2021/01/28 03:52:31;;;;;;;15.27;6.13;;;4.90;99.90;;;;;;12491318;28;20135;-42
2021/01/28 03:58:33;;;;;;;10.57;4.85;;;4.90;99.90;;;;;;12499744;28;20049;-41
2021/01/28 04:04:34;;;;;;;12.07;5.57;;;4.90;99.90;;;;;;12506126;28;20091;-41
2021/01/28 04:10:39;;;;;;;13.10;5.03;;;4.90;99.90;;;;;;12503818;28;20049;-42
2021/01/28 04:16:41;;;;;;;12.45;5.30;;;4.90;99.90;;;;;;12497874;28;20053;-42
2021/01/28 04:22:42;;;;;;;8.57;4.95;;;4.80;99.90;;;;;;12495671;28;20623;-41
2021/01/28 04:28:45;;;;;;;12.68;5.18;;;4.60;99.90;;;;;;12509189;28;20501;-42
2021/01/28 04:34:47;;;;;;;12.15;5.07;;;4.60;99.90;;;;;;12494864;28;20080;-42
2021/01/28 04:40:51;;;;;;;13.13;5.32;;;4.50;99.90;;;;;;12496586;28;20094;-42
2021/01/28 04:46:56;;;;;;;10.63;5.72;;;4.40;99.90;;;;;;12504640;28;20069;-41
2021/01/28 04:53:04;;;;;;;12.57;5.65;;;4.30;99.90;;;;;;12492081;28;20049;-42
2021/01/28 04:59:14;;;;;;;16.15;5.88;;;4.40;99.90;;;;;;12496535;28;20165;-42
2021/01/28 05:05:16;;;;;;;8.95;4.80;;;4.20;99.90;;;;;;12500234;28;20140;-41
2021/01/28 05:11:31;;;;;;;10.43;4.73;;;4.20;99.90;;;;;;12493074;28;20397;-42
2021/01/28 05:17:33;;;;;;;15.68;6.72;;;4.20;99.90;;;;;;12466740;28;20457;-42
2021/01/28 05:23:39;;;;;;;10.15;4.78;;;4.20;99.90;;;;;;12501308;28;20092;-41
2021/01/28 05:29:42;;;;;;;10.25;4.78;;;4.20;99.90;;;;;;12504897;28;20045;-41
2021/01/28 05:35:46;;;;;;;9.40;4.75;;;4.30;99.90;;;;;;12497187;28;20088;-42
2021/01/28 05:41:50;;;;;;;9.75;4.78;;;4.20;99.90;;;;;;12486452;28;20045;-42
2021/01/28 05:47:51;;;;;;;8.97;4.43;;;4.00;99.90;;;;;;12480658;28;20060;-42
2021/01/28 05:54:01;;;;;;;13.27;4.97;;;3.90;99.90;;;;;;12491074;28;20772;-42
2021/01/28 06:00:21;;;;;;;12.40;5.22;;;3.80;99.90;;;;;;12457525;28;20608;-41
2021/01/28 06:06:28;;;;;;;15.10;5.47;;;3.80;99.90;;;;;;12502847;28;20474;-42
2021/01/28 06:12:38;;;;;;;59.15;7.10;;;3.80;99.90;;;;;;12477094;28;20446;-41
2021/01/28 06:19:10;;;;;;;15.75;5.75;;;3.70;99.90;;;;;;12498390;28;20059;-41
2021/01/28 06:25:46;;;;;;;12.13;5.47;;;3.70;99.90;;;;;;12508085;28;20041;-42
2021/01/28 06:32:25;;;;;;;18.45;6.28;;;3.70;99.90;;;;;;12496968;28;20064;-42
2021/01/28 06:38:45;;;;;;;16.10;6.03;;;3.60;99.90;;;;;;12484753;28;20705;-42
2021/01/28 06:44:57;;;;;;;13.60;5.00;;;3.60;99.90;;;;;;12489438;28;20085;-42
2021/01/28 06:51:06;;;;;;;17.73;6.38;;;3.70;99.90;;;;;;12486611;28;20049;-42
2021/01/28 06:57:34;;;;;;;43.72;8.30;;;3.70;99.90;;;;;;12473850;28;20072;-42
2021/01/28 07:04:13;;;;;;;39.28;7.93;;;3.60;99.90;;;;;;12494369;28;20053;-42
2021/01/28 07:10:24;;;;;;;46.95;8.35;;;3.60;99.90;;;;;;12476247;28;20049;-42
2021/01/28 07:16:43;;;;;;;30.92;8.55;;;3.60;99.90;;;;;;12473340;28;20170;-42
2021/01/28 07:22:46;;;;;;;30.25;9.45;;;3.50;99.90;;;;;;12496410;28;20053;-42
2021/01/28 07:28:48;;;;;;;27.33;9.65;;;3.50;99.90;;;;;;12512659;28;20053;-41
2021/01/28 07:35:27;;;;;;;65.63;11.57;;;3.50;99.90;;;;;;12504779;28;20060;-42
2021/01/28 07:41:34;;;;;;;48.40;12.45;;;3.50;99.90;;;;;;12518928;28;20080;-41
2021/01/28 07:47:35;;;;;;;18.75;8.07;;;3.40;99.90;;;;;;12515126;28;20136;-41
2021/01/28 07:53:46;;;;;;;27.10;9.70;;;3.40;99.90;;;;;;12493479;28;20069;-42
2021/01/28 07:59:55;;;;;;;21.17;7.65;;;3.40;99.90;;;;;;12498740;28;20053;-42
2021/01/28 08:06:01;;;;;;;20.20;7.88;;;3.40;99.90;;;;;;12488274;28;20057;-42
2021/01/28 08:12:03;;;;;;;22.83;8.80;;;3.40;99.90;;;;;;12504826;28;20394;-42
2021/01/28 08:18:25;;;;;;;21.92;9.38;;;3.40;99.90;;;;;;12500836;28;20378;-41
2021/01/28 08:24:35;;;;;;;29.23;10.27;;;3.30;99.90;;;;;;12514658;28;20684;-42
2021/01/28 08:30:36;;;;;;;28.98;10.10;;;3.40;99.90;;;;;;12498437;28;20055;-42
2021/01/28 08:36:50;;;;;;;33.50;11.05;;;3.30;99.90;;;;;;12490416;28;20135;-42
2021/01/28 08:43:05;;;;;;;17.63;9.87;;;3.30;99.90;;;;;;12507312;28;20420;-42
2021/01/28 08:49:14;;;;;;;23.83;9.98;;;3.30;99.90;;;;;;12488936;28;20473;-42
2021/01/28 08:55:22;;;;;;;22.05;10.05;;;3.30;99.90;;;;;;12484327;28;20061;-42
2021/01/28 09:01:24;;;;;;;26.38;11.05;;;3.30;99.90;;;;;;12470429;28;20060;-42
2021/01/28 09:07:53;;;;;;;31.00;12.10;;;3.30;99.90;;;;;;12498494;28;20110;-42
2021/01/28 09:14:16;;;;;;;28.77;12.40;;;3.30;99.90;;;;;;12497299;28;20413;-42
2021/01/28 09:20:29;;;;;;;22.35;11.45;;;3.30;99.90;;;;;;12479354;28;20048;-42
2021/01/28 09:26:33;;;;;;;28.98;13.07;;;3.30;99.90;;;;;;12503367;28;20183;-42
2021/01/28 09:32:35;;;;;;;23.92;12.73;;;3.30;99.90;;;;;;12502409;28;20056;-42
2021/01/28 09:38:39;;;;;;;21.70;10.68;;;3.30;99.90;;;;;;12504414;28;20091;-42
2021/01/28 09:44:49;;;;;;;32.75;12.00;;;3.30;99.90;;;;;;12508485;28;20413;-42
2021/01/28 09:50:50;;;;;;;23.60;11.73;;;3.30;99.90;;;;;;12499136;28;20049;-41
2021/01/28 09:56:51;;;;;;;19.20;10.35;;;3.30;99.90;;;;;;12513045;28;20091;-41
2021/01/28 10:02:59;;;;;;;21.40;10.23;;;3.30;99.90;;;;;;12479260;28;20053;-42
2021/01/28 10:09:02;;;;;;;19.73;9.60;;;3.20;99.90;;;;;;12503753;28;20061;-42
2021/01/28 10:15:04;;;;;;;21.10;10.75;;;3.20;99.90;;;;;;12501381;28;20049;-42
2021/01/28 10:21:06;;;;;;;20.48;9.65;;;3.20;99.90;;;;;;12514085;28;20466;-42
2021/01/28 10:27:08;;;;;;;14.55;8.90;;;3.20;99.90;;;;;;12514626;28;20149;-41
2021/01/28 10:33:11;;;;;;;19.23;9.63;;;3.20;99.90;;;;;;12519559;28;20069;-42
2021/01/28 10:39:12;;;;;;;20.95;10.88;;;3.20;99.90;;;;;;12513269;28;20057;-42
2021/01/28 10:45:28;;;;;;;30.35;12.10;;;3.20;99.90;;;;;;12508363;28;20139;-42
2021/01/28 10:51:29;;;;;;;19.33;10.88;;;3.20;99.90;;;;;;12519058;28;20136;-42
2021/01/28 10:57:32;;;;;;;21.10;10.55;;;3.20;99.90;;;;;;12508707;28;20140;-42
2021/01/28 11:03:36;;;;;;;22.02;11.02;;;3.10;99.90;;;;;;12512028;28;20426;-42
2021/01/28 11:09:37;;;;;;;23.38;11.82;;;3.10;99.90;;;;;;12508272;28;20049;-42
2021/01/28 11:15:38;;;;;;;21.90;11.07;;;3.10;99.90;;;;;;12503636;28;20505;-42
2021/01/28 11:21:40;;;;;;;15.65;9.10;;;3.20;99.90;;;;;;12504306;28;20644;-41
2021/01/28 11:27:42;;;;;;;18.17;10.00;;;3.10;99.90;;;;;;12505963;28;20118;-42
2021/01/28 11:33:43;;;;;;;16.80;8.35;;;3.00;99.90;;;;;;12511839;28;20076;-42
2021/01/28 11:39:47;;;;;;;17.65;8.50;;;3.00;99.90;;;;;;12506614;28;20527;-42
2021/01/28 11:45:48;;;;;;;19.67;8.80;;;3.00;99.90;;;;;;12501884;28;20063;-42
2021/01/28 11:51:50;;;;;;;15.20;7.85;;;3.00;99.90;;;;;;12487480;28;20069;-42
2021/01/28 11:57:52;;;;;;;15.57;8.13;;;2.90;99.90;;;;;;12505501;28;20079;-42
2021/01/28 12:03:53;;;;;;;13.10;6.47;;;3.00;99.90;;;;;;12501166;28;20064;-42
2021/01/28 12:09:54;;;;;;;11.27;6.25;;;3.00;99.90;;;;;;12502126;28;20144;-42
2021/01/28 12:15:56;;;;;;;12.50;6.78;;;3.00;99.90;;;;;;12506163;28;20053;-41
2021/01/28 12:21:58;;;;;;;11.45;6.30;;;2.90;99.90;;;;;;12513854;28;20222;-42
2021/01/28 12:27:59;;;;;;;12.80;6.28;;;2.90;99.90;;;;;;12518524;28;20440;-42
2021/01/28 12:34:00;;;;;;;13.38;6.30;;;2.90;99.90;;;;;;12511818;28;20586;-42
2021/01/28 12:40:05;;;;;;;11.15;6.07;;;2.80;99.90;;;;;;12515403;28;20766;-42
2021/01/28 12:46:07;;;;;;;;;;;2.80;99.90;;;;;;12501706;28;20151;-42
2021/01/28 12:52:08;;;;;;;10.35;6.15;;;2.80;99.90;;;;;;12495386;28;19968;-42
2021/01/28 12:58:11;;;;;;;10.70;5.13;;;2.80;99.90;;;;;;12514082;28;20102;-42
2021/01/28 13:04:12;;;;;;;10.20;5.00;;;2.70;99.90;;;;;;12515184;28;20063;-42
2021/01/28 13:10:15;;;;;;;7.63;5.10;;;2.60;99.90;;;;;;12507291;28;20049;-42
2021/01/28 13:16:17;;;;;;;8.73;5.15;;;2.60;99.90;;;;;;12505592;28;20885;-42
2021/01/28 13:22:19;;;;;;;8.95;4.70;;;2.60;99.90;;;;;;12509840;28;20045;-42
2021/01/28 13:28:20;;;;;;;7.75;4.35;;;2.70;99.90;;;;;;12512329;28;20053;-42
2021/01/28 13:34:21;;;;;;;6.43;3.78;;;2.70;99.90;;;;;;12508716;28;20049;-42
2021/01/28 13:40:26;;;;;;;6.30;3.78;;;2.60;99.90;;;;;;12516736;28;20060;-42
2021/01/28 13:46:28;;;;;;;6.85;4.03;;;2.60;99.90;;;;;;12508502;28;20072;-41
2021/01/28 13:52:30;;;;;;;11.60;3.88;;;2.50;99.90;;;;;;12506170;28;20052;-42
2021/01/28 13:58:31;;;;;;;8.82;3.95;;;2.50;99.90;;;;;;12505284;28;20056;-42
2021/01/28 14:04:34;;;;;;;7.07;4.30;;;2.50;99.90;;;;;;12502370;28;20048;-42
2021/01/28 14:10:35;;;;;;;11.55;4.28;;;2.50;99.90;;;;;;12508585;28;20136;-42
2021/01/28 14:16:38;;;;;;;8.15;4.45;;;2.40;99.90;;;;;;12513831;28;20386;-42
2021/01/28 14:22:41;;;;;;;10.68;5.05;;;2.40;99.90;;;;;;12504799;28;20070;-41
2021/01/28 14:28:42;;;;;;;12.65;5.88;;;2.40;99.90;;;;;;12508034;28;20049;-41
2021/01/28 14:34:44;;;;;;;11.25;5.57;;;2.40;99.90;;;;;;12494973;28;20094;-42
2021/01/28 14:40:47;;;;;;;13.23;5.20;;;2.40;99.90;;;;;;12495605;28;20132;-42
2021/01/28 14:46:48;;;;;;;10.13;4.43;;;2.40;99.90;;;;;;12508807;28;20064;-42
2021/01/28 14:52:50;;;;;;;9.40;4.63;;;2.30;99.90;;;;;;12474993;28;20045;-42
2021/01/28 14:58:52;;;;;;;11.65;4.40;;;2.40;99.90;;;;;;12469970;28;20080;-41
2021/01/28 15:04:54;;;;;;;8.45;3.92;;;2.40;99.90;;;;;;12504603;28;20475;-42
2021/01/28 15:10:56;;;;;;;9.05;4.03;;;2.30;99.90;;;;;;12490157;28;20065;-42
2021/01/28 15:16:57;;;;;;;7.97;4.18;;;2.40;99.90;;;;;;12486477;28;20152;-42
2021/01/28 15:22:59;;;;;;;7.55;3.67;;;2.50;99.90;;;;;;12498454;28;20048;-42
2021/01/28 15:29:02;;;;;;;6.53;3.67;;;2.40;99.90;;;;;;12506882;28;20052;-42
2021/01/28 15:35:04;;;;;;;5.90;3.25;;;2.30;99.90;;;;;;12486026;28;20085;-41
2021/01/28 15:41:06;;;;;;;6.63;3.40;;;2.30;99.90;;;;;;12455283;28;20057;-42
2021/01/28 15:47:07;;;;;;;8.35;4.47;;;2.30;99.90;;;;;;12474102;28;20139;-41
2021/01/28 15:53:13;;;;;;;10.88;4.50;;;2.20;99.90;;;;;;12469779;28;20037;-41
2021/01/28 15:59:15;;;;;;;9.52;4.60;;;2.20;99.90;;;;;;12497390;28;20143;-41
2021/01/28 16:05:16;;;;;;;8.35;4.75;;;2.20;99.90;;;;;;12500716;28;20140;-42
2021/01/28 16:11:17;;;;;;;11.07;5.25;;;2.20;99.90;;;;;;12509006;28;20049;-42
2021/01/28 16:17:19;;;;;;;13.35;5.70;;;2.10;99.90;;;;;;12488977;28;20077;-41
2021/01/28 16:23:20;;;;;;;15.45;7.13;;;2.10;99.90;;;;;;12507970;28;20105;-41
2021/01/28 16:29:22;;;;;;;11.88;6.30;;;2.10;99.90;;;;;;12506774;28;20102;-42
2021/01/28 16:35:27;;;;;;;14.93;7.18;;;2.10;99.90;;;;;;12491436;28;20064;-41
2021/01/28 16:41:40;;;;;;;18.23;7.75;;;2.10;99.90;;;;;;12503037;28;20045;-42
2021/01/28 16:47:41;;;;;;;19.95;8.88;;;2.10;99.90;;;;;;12498948;28;20826;-41
2021/01/28 16:53:42;;;;;;;18.63;8.70;;;2.10;99.90;;;;;;12483132;28;20374;-41
2021/01/28 16:59:44;;;;;;;21.83;9.65;;;2.10;99.90;;;;;;12460670;28;20076;-42
2021/01/28 17:05:47;;;;;;;23.00;10.93;;;2.20;99.90;;;;;;12482670;28;20302;-41
2021/01/28 17:11:48;;;;;;;25.63;12.30;;;2.20;99.90;;;;;;12478341;28;20055;-42
2021/01/28 17:17:50;;;;;;;29.05;14.35;;;2.20;99.90;;;;;;12484731;28;20140;-42
2021/01/28 17:23:51;;;;;;;34.72;15.38;;;2.20;99.90;;;;;;12495530;28;20045;-42
2021/01/28 17:29:53;;;;;;;32.85;16.08;;;2.20;99.90;;;;;;12512785;28;20524;-42
2021/01/28 17:35:55;;;;;;;35.65;17.48;;;2.20;99.90;;;;;;12498611;28;20045;-42
2021/01/28 17:41:56;;;;;;;32.05;15.35;;;2.20;99.90;;;;;;12497961;28;20057;-42
2021/01/28 17:47:59;;;;;;;36.13;14.38;;;2.10;99.90;;;;;;12481523;28;20072;-42
2021/01/28 17:54:01;;;;;;;26.13;13.63;;;2.10;99.90;;;;;;12488089;28;20041;-42
2021/01/28 18:00:12;;;;;;;29.70;13.63;;;2.00;99.90;;;;;;12488122;28;20052;-42
2021/01/28 18:06:16;;;;;;;32.20;13.52;;;1.90;99.90;;;;;;12508028;28;20087;-42
2021/01/28 18:12:20;;;;;;;33.72;13.73;;;2.00;99.90;;;;;;12504080;28;20053;-42
2021/01/28 18:18:22;;;;;;;27.60;13.05;;;1.90;99.90;;;;;;12478288;28;20278;-42
2021/01/28 18:24:23;;;;;;;32.13;13.52;;;1.80;99.90;;;;;;12495764;28;20097;-42
2021/01/28 18:30:27;;;;;;;29.98;13.63;;;1.80;99.90;;;;;;12495343;28;21306;-42
2021/01/28 18:36:28;;;;;;;29.02;13.82;;;1.80;99.90;;;;;;12494347;28;20041;-42
2021/01/28 18:42:30;;;;;;;29.85;14.88;;;1.80;99.90;;;;;;12502602;28;20089;-41
2021/01/28 18:48:37;;;;;;;34.35;15.38;;;1.80;99.90;;;;;;12486989;28;20136;-42
2021/01/28 18:54:39;;;;;;;33.08;14.60;;;1.80;99.90;;;;;;12494293;28;20136;-42
2021/01/28 19:00:41;;;;;;;33.63;14.13;;;1.80;99.90;;;;;;12486713;28;20077;-42
2021/01/28 19:06:42;;;;;;;32.35;14.95;;;1.90;99.90;;;;;;12500716;28;20045;-41
2021/01/28 19:12:43;;;;;;;40.25;15.95;;;1.80;99.90;;;;;;12471021;28;20140;-42
2021/01/28 19:18:45;;;;;;;33.22;15.50;;;1.80;99.90;;;;;;12491662;28;20045;-42
2021/01/28 19:24:46;;;;;;;31.13;14.30;;;1.80;99.90;;;;;;12497506;28;20050;-41
2021/01/28 19:30:56;;;;;;;34.03;15.20;;;1.70;99.90;;;;;;12502411;28;20091;-42
2021/01/28 19:36:57;;;;;;;33.85;16.58;;;1.70;99.90;;;;;;12506297;28;20602;-42
2021/01/28 19:42:59;;;;;;;35.97;16.23;;;1.70;99.90;;;;;;12500178;28;20513;-42
2021/01/28 19:49:01;;;;;;;35.85;16.65;;;1.70;99.90;;;;;;12512871;28;20049;-42
2021/01/28 19:55:02;;;;;;;40.97;17.75;;;1.70;99.90;;;;;;12486972;28;20056;-42
2021/01/28 20:01:05;;;;;;;38.20;17.95;;;1.70;99.90;;;;;;12513539;28;20045;-42
2021/01/28 20:07:07;;;;;;;40.53;19.80;;;1.70;99.90;;;;;;12503829;28;20068;-42
2021/01/28 20:13:16;;;;;;;41.53;19.83;;;1.70;99.90;;;;;;12493626;28;20128;-42
2021/01/28 20:19:19;;;;;;;44.35;21.60;;;1.70;99.90;;;;;;12502833;28;20076;-42
2021/01/28 20:25:25;;;;;;;43.83;20.90;;;1.80;99.90;;;;;;12523086;28;20452;-41
2021/01/28 20:31:26;;;;;;;42.50;20.20;;;1.70;99.90;;;;;;12499754;28;20517;-41
2021/01/28 20:37:28;;;;;;;45.60;18.30;;;1.70;99.90;;;;;;12509453;28;20080;-41
2021/01/28 20:43:29;;;;;;;46.67;19.77;;;1.70;99.90;;;;;;12497105;28;20075;-42
2021/01/28 20:49:30;;;;;;;49.35;21.23;;;1.70;99.90;;;;;;12495019;28;20052;-42
2021/01/28 20:55:32;;;;;;;44.53;19.73;;;1.70;99.90;;;;;;12495559;28;20044;-41
2021/01/28 21:01:33;;;;;;;36.53;16.90;;;1.70;99.90;;;;;;12490853;28;20402;-42
2021/01/28 21:07:35;;;;;;;37.22;17.90;;;1.80;99.90;;;;;;12486801;28;20055;-42
2021/01/28 21:13:36;;;;;;;137.65;22.40;;;1.80;99.90;;;;;;12490547;28;20114;-42
2021/01/28 21:19:37;;;;;;;46.83;20.13;;;1.80;99.90;;;;;;12489732;28;20053;-42
2021/01/28 21:25:39;;;;;;;62.25;21.70;;;1.70;99.90;;;;;;12489858;28;20592;-41
2021/01/28 21:31:40;;;;;;;49.42;21.05;;;1.70;99.90;;;;;;12503814;28;20470;-42
2021/01/28 21:37:42;;;;;;;46.22;19.95;;;1.70;99.90;;;;;;12497648;28;20453;-42
2021/01/28 21:43:44;;;;;;;40.15;19.55;;;1.70;99.90;;;;;;12491383;28;20305;-42
2021/01/28 21:49:45;;;;;;;43.50;19.98;;;1.70;99.90;;;;;;12497572;28;20098;-42
2021/01/28 21:55:47;;;;;;;38.40;18.38;;;1.60;99.90;;;;;;12498645;28;20094;-42
2021/01/28 22:01:49;;;;;;;34.22;17.17;;;1.60;99.90;;;;;;12504348;28;20094;-42
2021/01/28 22:07:51;;;;;;;42.38;18.63;;;1.60;99.90;;;;;;12498765;28;20715;-42
2021/01/28 22:13:52;;;;;;;37.63;18.05;;;1.60;99.90;;;;;;12497414;28;20084;-42
2021/01/28 22:19:54;;;;;;;36.78;17.63;;;1.50;99.90;;;;;;12483363;28;20530;-41
2021/01/28 22:25:55;;;;;;;53.05;18.77;;;1.60;99.90;;;;;;12502492;28;20128;-42
2021/01/28 22:31:58;;;;;;;37.47;18.83;;;1.50;99.90;;;;;;12501974;28;20079;-42
2021/01/28 22:38:00;;;;;;;44.80;18.67;;;1.50;99.90;;;;;;12497090;28;20888;-41
2021/01/28 22:44:02;;;;;;;44.42;18.80;;;1.50;99.90;;;;;;12494233;28;20045;-42
2021/01/28 22:50:09;;;;;;;35.17;17.88;;;1.50;99.90;;;;;;12498700;28;20049;-42
2021/01/28 22:56:10;;;;;;;35.95;18.02;;;1.50;99.90;;;;;;12490208;28;20055;-42
2021/01/28 23:02:11;;;;;;;47.95;18.02;;;1.50;99.90;;;;;;12496719;28;20503;-41
2021/01/28 23:08:13;;;;;;;50.55;18.42;;;1.50;99.90;;;;;;12494947;28;20060;-42
2021/01/28 23:14:14;;;;;;;45.72;18.67;;;1.50;99.90;;;;;;12492861;28;20055;-42
2021/01/28 23:20:17;;;;;;;42.78;18.42;;;1.50;99.90;;;;;;12495566;28;20045;-42
2021/01/28 23:26:23;;;;;;;39.25;18.73;;;1.50;99.90;;;;;;12493278;28;20157;-42
2021/01/28 23:32:24;;;;;;;41.05;19.40;;;1.40;99.90;;;;;;12495227;28;20048;-42
2021/01/28 23:38:26;;;;;;;39.55;19.88;;;1.40;99.90;;;;;;12492314;28;20061;-42
2021/01/28 23:44:27;;;;;;;37.08;19.50;;;1.40;99.90;;;;;;12496718;28;20917;-42
2021/01/28 23:50:29;;;;;;;37.55;19.42;;;1.30;99.90;;;;;;12489148;28;20045;-42
2021/01/28 23:56:30;;;;;;;44.95;20.83;;;1.30;99.90;;;;;;12487807;28;20148;-42
